sensor_id;sensor_type;location;lat;lon;timestamp;P1;durP1;ratioP1;P2;durP2;ratioP2
70825;SDS011;58446;41.490;22.098;2023-07-08T00:00:21;12.82;;;8.98;;
70825;SDS011;58446;41.490;22.098;2023-07-08T00:02:47;12.03;;;8.03;;
70825;SDS011;58446;41.490;22.098;2023-07-08T00:05:14;12.23;;;8.30;;
70825;SDS011;58446;41.490;22.098;2023-07-08T00:07:45;12.70;;;8.57;;
70825;SDS011;58446;41.490;22.098;2023-07-08T00:10:16;13.80;;;8.02;;
70825;SDS011;58446;41.490;22.098;2023-07-08T00:12:42;12.43;;;8.07;;
70825;SDS011;58446;41.490;22.098;2023-07-08T00:15:09;12.83;;;8.40;;
70825;SDS011;58446;41.490;22.098;2023-07-08T00:17:36;12.60;;;8.32;;
70825;SDS011;58446;41.490;22.098;2023-07-08T00:20:08;13.52;;;8.10;;
70825;SDS011;58446;41.490;22.098;2023-07-08T00:23:08;14.20;;;8.13;;
70825;SDS011;58446;41.490;22.098;2023-07-08T00:25:34;11.90;;;7.40;;
70825;SDS011;58446;41.490;22.098;2023-07-08T00:28:00;12.20;;;7.50;;
70825;SDS011;58446;41.490;22.098;2023-07-08T00:30:27;13.93;;;7.20;;
70825;SDS011;58446;41.490;22.098;2023-07-08T00:32:55;15.48;;;8.25;;
70825;SDS011;58446;41.490;22.098;2023-07-08T00:35:32;11.60;;;7.67;;
70825;SDS011;58446;41.490;22.098;2023-07-08T00:38:11;12.55;;;8.18;;
70825;SDS011;58446;41.490;22.098;2023-07-08T00:40:49;12.40;;;7.88;;
70825;SDS011;58446;41.490;22.098;2023-07-08T00:43:25;14.15;;;9.13;;
70825;SDS011;58446;41.490;22.098;2023-07-08T00:46:08;14.07;;;9.27;;
70825;SDS011;58446;41.490;22.098;2023-07-08T00:48:43;14.27;;;9.27;;
70825;SDS011;58446;41.490;22.098;2023-07-08T00:51:11;18.40;;;9.20;;
70825;SDS011;58446;41.490;22.098;2023-07-08T00:53:37;15.05;;;9.13;;
70825;SDS011;58446;41.490;22.098;2023-07-08T00:56:08;14.80;;;10.13;;
70825;SDS011;58446;41.490;22.098;2023-07-08T00:58:49;18.75;;;10.52;;
70825;SDS011;58446;41.490;22.098;2023-07-08T01:01:20;15.47;;;9.90;;
70825;SDS011;58446;41.490;22.098;2023-07-08T01:03:54;14.57;;;9.57;;
70825;SDS011;58446;41.490;22.098;2023-07-08T01:06:26;16.08;;;9.27;;
70825;SDS011;58446;41.490;22.098;2023-07-08T01:09:02;15.15;;;9.20;;
70825;SDS011;58446;41.490;22.098;2023-07-08T01:11:31;15.52;;;9.23;;
70825;SDS011;58446;41.490;22.098;2023-07-08T01:13:57;13.17;;;7.93;;
70825;SDS011;58446;41.490;22.098;2023-07-08T01:16:26;13.90;;;9.10;;
70825;SDS011;58446;41.490;22.098;2023-07-08T01:18:51;15.68;;;9.85;;
70825;SDS011;58446;41.490;22.098;2023-07-08T01:21:31;15.40;;;9.10;;
70825;SDS011;58446;41.490;22.098;2023-07-08T01:24:07;16.48;;;9.93;;
70825;SDS011;58446;41.490;22.098;2023-07-08T01:26:35;15.57;;;9.80;;
70825;SDS011;58446;41.490;22.098;2023-07-08T01:29:05;15.13;;;9.18;;
70825;SDS011;58446;41.490;22.098;2023-07-08T01:31:32;12.50;;;8.52;;
70825;SDS011;58446;41.490;22.098;2023-07-08T01:33:58;14.38;;;8.82;;
70825;SDS011;58446;41.490;22.098;2023-07-08T01:36:25;15.57;;;9.03;;
70825;SDS011;58446;41.490;22.098;2023-07-08T01:38:54;13.30;;;8.50;;
70825;SDS011;58446;41.490;22.098;2023-07-08T01:41:20;11.57;;;8.05;;
70825;SDS011;58446;41.490;22.098;2023-07-08T01:43:46;13.07;;;8.60;;
70825;SDS011;58446;41.490;22.098;2023-07-08T01:46:33;14.20;;;8.32;;
70825;SDS011;58446;41.490;22.098;2023-07-08T01:48:58;16.83;;;9.73;;
70825;SDS011;58446;41.490;22.098;2023-07-08T01:51:26;15.30;;;9.27;;
70825;SDS011;58446;41.490;22.098;2023-07-08T01:53:52;13.30;;;8.63;;
70825;SDS011;58446;41.490;22.098;2023-07-08T01:56:18;13.43;;;8.38;;
70825;SDS011;58446;41.490;22.098;2023-07-08T01:58:43;15.70;;;8.73;;
70825;SDS011;58446;41.490;22.098;2023-07-08T02:01:09;15.90;;;8.90;;
70825;SDS011;58446;41.490;22.098;2023-07-08T02:03:36;15.10;;;9.10;;
70825;SDS011;58446;41.490;22.098;2023-07-08T02:06:02;14.13;;;8.03;;
70825;SDS011;58446;41.490;22.098;2023-07-08T02:08:28;13.38;;;8.63;;
70825;SDS011;58446;41.490;22.098;2023-07-08T02:10:55;12.75;;;8.13;;
70825;SDS011;58446;41.490;22.098;2023-07-08T02:13:22;17.17;;;8.75;;
70825;SDS011;58446;41.490;22.098;2023-07-08T02:15:49;14.10;;;7.53;;
70825;SDS011;58446;41.490;22.098;2023-07-08T02:18:15;12.82;;;7.35;;
70825;SDS011;58446;41.490;22.098;2023-07-08T02:20:44;14.27;;;8.35;;
70825;SDS011;58446;41.490;22.098;2023-07-08T02:23:10;14.68;;;7.30;;
70825;SDS011;58446;41.490;22.098;2023-07-08T02:25:36;14.40;;;8.57;;
70825;SDS011;58446;41.490;22.098;2023-07-08T02:28:02;21.20;;;9.27;;
70825;SDS011;58446;41.490;22.098;2023-07-08T02:30:28;13.05;;;8.48;;
70825;SDS011;58446;41.490;22.098;2023-07-08T02:32:53;12.10;;;8.00;;
70825;SDS011;58446;41.490;22.098;2023-07-08T02:35:23;14.43;;;8.55;;
70825;SDS011;58446;41.490;22.098;2023-07-08T02:37:50;14.10;;;8.25;;
70825;SDS011;58446;41.490;22.098;2023-07-08T02:40:16;13.55;;;8.25;;
70825;SDS011;58446;41.490;22.098;2023-07-08T02:42:42;13.87;;;8.53;;
70825;SDS011;58446;41.490;22.098;2023-07-08T02:45:08;13.13;;;7.83;;
70825;SDS011;58446;41.490;22.098;2023-07-08T02:47:34;15.63;;;8.50;;
70825;SDS011;58446;41.490;22.098;2023-07-08T02:49:59;15.07;;;7.38;;
70825;SDS011;58446;41.490;22.098;2023-07-08T02:52:25;13.50;;;7.60;;
70825;SDS011;58446;41.490;22.098;2023-07-08T02:54:52;13.60;;;7.47;;
70825;SDS011;58446;41.490;22.098;2023-07-08T02:57:17;11.75;;;7.53;;
70825;SDS011;58446;41.490;22.098;2023-07-08T02:59:43;13.57;;;8.25;;
70825;SDS011;58446;41.490;22.098;2023-07-08T03:02:08;15.77;;;7.87;;
70825;SDS011;58446;41.490;22.098;2023-07-08T03:04:34;13.03;;;7.57;;
70825;SDS011;58446;41.490;22.098;2023-07-08T03:07:05;13.43;;;7.35;;
70825;SDS011;58446;41.490;22.098;2023-07-08T03:09:31;11.73;;;7.43;;
70825;SDS011;58446;41.490;22.098;2023-07-08T03:11:57;14.73;;;6.97;;
70825;SDS011;58446;41.490;22.098;2023-07-08T03:14:24;12.85;;;7.70;;
70825;SDS011;58446;41.490;22.098;2023-07-08T03:16:49;12.47;;;7.00;;
70825;SDS011;58446;41.490;22.098;2023-07-08T03:19:15;12.75;;;7.28;;
70825;SDS011;58446;41.490;22.098;2023-07-08T03:21:41;12.57;;;8.00;;
70825;SDS011;58446;41.490;22.098;2023-07-08T03:24:11;13.67;;;6.87;;
70825;SDS011;58446;41.490;22.098;2023-07-08T03:26:38;12.90;;;7.25;;
70825;SDS011;58446;41.490;22.098;2023-07-08T03:29:04;15.75;;;8.13;;
70825;SDS011;58446;41.490;22.098;2023-07-08T03:31:32;14.20;;;7.75;;
70825;SDS011;58446;41.490;22.098;2023-07-08T03:33:58;12.17;;;7.83;;
70825;SDS011;58446;41.490;22.098;2023-07-08T03:36:24;13.30;;;7.63;;
70825;SDS011;58446;41.490;22.098;2023-07-08T03:38:53;13.17;;;7.47;;
70825;SDS011;58446;41.490;22.098;2023-07-08T03:41:20;14.23;;;7.22;;
70825;SDS011;58446;41.490;22.098;2023-07-08T03:43:46;12.07;;;7.25;;
70825;SDS011;58446;41.490;22.098;2023-07-08T03:46:13;11.35;;;6.82;;
70825;SDS011;58446;41.490;22.098;2023-07-08T03:48:40;12.07;;;6.63;;
70825;SDS011;58446;41.490;22.098;2023-07-08T03:51:09;11.95;;;7.25;;
70825;SDS011;58446;41.490;22.098;2023-07-08T03:53:49;11.30;;;6.72;;
70825;SDS011;58446;41.490;22.098;2023-07-08T03:56:14;11.53;;;7.07;;
70825;SDS011;58446;41.490;22.098;2023-07-08T03:58:40;11.88;;;7.25;;
70825;SDS011;58446;41.490;22.098;2023-07-08T04:01:09;12.70;;;6.73;;
70825;SDS011;58446;41.490;22.098;2023-07-08T04:03:42;11.55;;;6.75;;
70825;SDS011;58446;41.490;22.098;2023-07-08T04:06:08;11.55;;;5.82;;
70825;SDS011;58446;41.490;22.098;2023-07-08T04:08:34;13.97;;;6.57;;
70825;SDS011;58446;41.490;22.098;2023-07-08T04:11:00;10.95;;;6.43;;
70825;SDS011;58446;41.490;22.098;2023-07-08T04:13:25;13.00;;;6.77;;
70825;SDS011;58446;41.490;22.098;2023-07-08T04:15:53;10.98;;;5.93;;
70825;SDS011;58446;41.490;22.098;2023-07-08T04:18:20;10.63;;;5.85;;
70825;SDS011;58446;41.490;22.098;2023-07-08T04:20:46;10.03;;;5.97;;
70825;SDS011;58446;41.490;22.098;2023-07-08T04:23:19;12.02;;;6.90;;
70825;SDS011;58446;41.490;22.098;2023-07-08T04:25:49;10.95;;;6.18;;
70825;SDS011;58446;41.490;22.098;2023-07-08T04:28:16;11.93;;;5.70;;
70825;SDS011;58446;41.490;22.098;2023-07-08T04:30:42;10.82;;;5.97;;
70825;SDS011;58446;41.490;22.098;2023-07-08T04:33:08;11.68;;;5.60;;
70825;SDS011;58446;41.490;22.098;2023-07-08T04:35:38;12.13;;;6.13;;
70825;SDS011;58446;41.490;22.098;2023-07-08T04:38:16;10.90;;;6.25;;
70825;SDS011;58446;41.490;22.098;2023-07-08T04:40:43;11.30;;;5.67;;
70825;SDS011;58446;41.490;22.098;2023-07-08T04:43:09;10.40;;;4.63;;
70825;SDS011;58446;41.490;22.098;2023-07-08T04:45:39;13.38;;;5.13;;
70825;SDS011;58446;41.490;22.098;2023-07-08T04:48:07;11.45;;;5.60;;
70825;SDS011;58446;41.490;22.098;2023-07-08T04:50:41;13.17;;;6.20;;
70825;SDS011;58446;41.490;22.098;2023-07-08T04:53:08;9.88;;;5.68;;
70825;SDS011;58446;41.490;22.098;2023-07-08T04:55:38;10.52;;;5.35;;
70825;SDS011;58446;41.490;22.098;2023-07-08T04:58:06;11.68;;;5.72;;
70825;SDS011;58446;41.490;22.098;2023-07-08T05:00:31;9.60;;;5.50;;
70825;SDS011;58446;41.490;22.098;2023-07-08T05:02:57;10.15;;;5.65;;
70825;SDS011;58446;41.490;22.098;2023-07-08T05:05:23;11.60;;;6.13;;
70825;SDS011;58446;41.490;22.098;2023-07-08T05:07:49;10.93;;;5.93;;
70825;SDS011;58446;41.490;22.098;2023-07-08T05:10:15;10.97;;;6.30;;
70825;SDS011;58446;41.490;22.098;2023-07-08T05:12:41;9.67;;;6.00;;
70825;SDS011;58446;41.490;22.098;2023-07-08T05:15:08;11.23;;;5.85;;
70825;SDS011;58446;41.490;22.098;2023-07-08T05:17:34;12.25;;;5.78;;
70825;SDS011;58446;41.490;22.098;2023-07-08T05:20:00;9.33;;;5.37;;
70825;SDS011;58446;41.490;22.098;2023-07-08T05:22:28;13.97;;;5.00;;
70825;SDS011;58446;41.490;22.098;2023-07-08T05:24:54;15.35;;;5.10;;
70825;SDS011;58446;41.490;22.098;2023-07-08T05:27:22;13.40;;;5.80;;
70825;SDS011;58446;41.490;22.098;2023-07-08T05:29:49;9.13;;;5.20;;
70825;SDS011;58446;41.490;22.098;2023-07-08T05:32:15;10.45;;;5.72;;
70825;SDS011;58446;41.490;22.098;2023-07-08T05:34:41;13.90;;;5.60;;
70825;SDS011;58446;41.490;22.098;2023-07-08T05:37:07;11.10;;;5.60;;
70825;SDS011;58446;41.490;22.098;2023-07-08T05:39:33;15.43;;;5.73;;
70825;SDS011;58446;41.490;22.098;2023-07-08T05:41:59;9.70;;;5.28;;
70825;SDS011;58446;41.490;22.098;2023-07-08T05:44:25;9.53;;;4.60;;
70825;SDS011;58446;41.490;22.098;2023-07-08T05:46:51;9.23;;;4.80;;
70825;SDS011;58446;41.490;22.098;2023-07-08T05:49:16;13.40;;;5.67;;
70825;SDS011;58446;41.490;22.098;2023-07-08T05:51:45;9.20;;;4.97;;
70825;SDS011;58446;41.490;22.098;2023-07-08T05:54:12;11.73;;;4.95;;
70825;SDS011;58446;41.490;22.098;2023-07-08T05:56:38;10.38;;;4.65;;
70825;SDS011;58446;41.490;22.098;2023-07-08T05:59:03;9.30;;;4.33;;
70825;SDS011;58446;41.490;22.098;2023-07-08T06:01:29;11.70;;;5.15;;
70825;SDS011;58446;41.490;22.098;2023-07-08T06:03:56;10.43;;;5.10;;
70825;SDS011;58446;41.490;22.098;2023-07-08T06:06:26;10.38;;;5.10;;
70825;SDS011;58446;41.490;22.098;2023-07-08T06:08:52;10.40;;;5.18;;
70825;SDS011;58446;41.490;22.098;2023-07-08T06:11:18;10.25;;;4.93;;
70825;SDS011;58446;41.490;22.098;2023-07-08T06:13:44;11.33;;;5.37;;
70825;SDS011;58446;41.490;22.098;2023-07-08T06:16:10;11.93;;;5.00;;
70825;SDS011;58446;41.490;22.098;2023-07-08T06:18:36;12.48;;;5.10;;
70825;SDS011;58446;41.490;22.098;2023-07-08T06:21:01;11.70;;;4.93;;
70825;SDS011;58446;41.490;22.098;2023-07-08T06:23:27;12.38;;;5.72;;
70825;SDS011;58446;41.490;22.098;2023-07-08T06:25:53;14.02;;;5.72;;
70825;SDS011;58446;41.490;22.098;2023-07-08T06:28:20;10.70;;;5.53;;
70825;SDS011;58446;41.490;22.098;2023-07-08T06:30:46;12.00;;;5.40;;
70825;SDS011;58446;41.490;22.098;2023-07-08T06:33:12;15.73;;;5.95;;
70825;SDS011;58446;41.490;22.098;2023-07-08T06:35:38;10.40;;;4.83;;
70825;SDS011;58446;41.490;22.098;2023-07-08T06:38:05;11.70;;;5.35;;
70825;SDS011;58446;41.490;22.098;2023-07-08T06:40:31;10.77;;;5.85;;
70825;SDS011;58446;41.490;22.098;2023-07-08T06:42:58;9.68;;;5.75;;
70825;SDS011;58446;41.490;22.098;2023-07-08T06:45:23;10.33;;;5.20;;
70825;SDS011;58446;41.490;22.098;2023-07-08T06:47:49;10.15;;;5.57;;
70825;SDS011;58446;41.490;22.098;2023-07-08T06:50:15;9.77;;;5.40;;
70825;SDS011;58446;41.490;22.098;2023-07-08T06:52:40;11.07;;;5.40;;
70825;SDS011;58446;41.490;22.098;2023-07-08T06:55:07;10.47;;;4.93;;
70825;SDS011;58446;41.490;22.098;2023-07-08T06:57:34;12.02;;;5.60;;
70825;SDS011;58446;41.490;22.098;2023-07-08T07:00:03;11.88;;;5.82;;
70825;SDS011;58446;41.490;22.098;2023-07-08T07:02:29;13.38;;;5.43;;
70825;SDS011;58446;41.490;22.098;2023-07-08T07:04:55;13.10;;;6.50;;
70825;SDS011;58446;41.490;22.098;2023-07-08T07:07:20;9.40;;;4.88;;
70825;SDS011;58446;41.490;22.098;2023-07-08T07:09:46;9.97;;;5.07;;
70825;SDS011;58446;41.490;22.098;2023-07-08T07:12:12;10.60;;;5.67;;
70825;SDS011;58446;41.490;22.098;2023-07-08T07:14:37;12.68;;;5.40;;
70825;SDS011;58446;41.490;22.098;2023-07-08T07:17:03;9.97;;;5.53;;
70825;SDS011;58446;41.490;22.098;2023-07-08T07:19:29;12.35;;;6.20;;
70825;SDS011;58446;41.490;22.098;2023-07-08T07:21:55;9.07;;;5.03;;
70825;SDS011;58446;41.490;22.098;2023-07-08T07:24:21;9.60;;;5.17;;
70825;SDS011;58446;41.490;22.098;2023-07-08T07:26:46;13.88;;;5.57;;
70825;SDS011;58446;41.490;22.098;2023-07-08T07:29:16;10.63;;;4.83;;
70825;SDS011;58446;41.490;22.098;2023-07-08T07:31:43;10.70;;;4.95;;
70825;SDS011;58446;41.490;22.098;2023-07-08T07:34:09;9.85;;;6.22;;
70825;SDS011;58446;41.490;22.098;2023-07-08T07:36:37;13.82;;;5.78;;
70825;SDS011;58446;41.490;22.098;2023-07-08T07:39:02;10.67;;;6.37;;
70825;SDS011;58446;41.490;22.098;2023-07-08T07:41:28;12.40;;;5.72;;
70825;SDS011;58446;41.490;22.098;2023-07-08T07:43:54;10.40;;;5.70;;
70825;SDS011;58446;41.490;22.098;2023-07-08T07:46:19;10.85;;;5.13;;
70825;SDS011;58446;41.490;22.098;2023-07-08T07:48:46;13.38;;;5.72;;
70825;SDS011;58446;41.490;22.098;2023-07-08T07:51:12;12.13;;;5.80;;
70825;SDS011;58446;41.490;22.098;2023-07-08T07:53:39;11.48;;;6.03;;
70825;SDS011;58446;41.490;22.098;2023-07-08T07:56:05;13.27;;;5.50;;
70825;SDS011;58446;41.490;22.098;2023-07-08T07:58:31;13.67;;;5.30;;
70825;SDS011;58446;41.490;22.098;2023-07-08T08:00:57;10.75;;;5.63;;
70825;SDS011;58446;41.490;22.098;2023-07-08T08:03:23;11.30;;;5.20;;
70825;SDS011;58446;41.490;22.098;2023-07-08T08:05:49;9.73;;;5.25;;
70825;SDS011;58446;41.490;22.098;2023-07-08T08:08:14;12.90;;;5.63;;
70825;SDS011;58446;41.490;22.098;2023-07-08T08:10:41;14.10;;;5.10;;
70825;SDS011;58446;41.490;22.098;2023-07-08T08:13:08;9.00;;;4.45;;
70825;SDS011;58446;41.490;22.098;2023-07-08T08:15:35;11.03;;;5.63;;
70825;SDS011;58446;41.490;22.098;2023-07-08T08:18:00;11.40;;;5.23;;
70825;SDS011;58446;41.490;22.098;2023-07-08T08:20:26;8.52;;;4.35;;
70825;SDS011;58446;41.490;22.098;2023-07-08T08:22:53;11.90;;;5.78;;
70825;SDS011;58446;41.490;22.098;2023-07-08T08:25:19;13.63;;;5.67;;
70825;SDS011;58446;41.490;22.098;2023-07-08T08:27:46;10.57;;;4.72;;
70825;SDS011;58446;41.490;22.098;2023-07-08T08:30:12;10.35;;;5.38;;
70825;SDS011;58446;41.490;22.098;2023-07-08T08:32:38;11.13;;;5.07;;
70825;SDS011;58446;41.490;22.098;2023-07-08T08:35:04;8.63;;;4.60;;
70825;SDS011;58446;41.490;22.098;2023-07-08T08:37:30;12.15;;;4.90;;
70825;SDS011;58446;41.490;22.098;2023-07-08T08:39:55;14.37;;;4.90;;
70825;SDS011;58446;41.490;22.098;2023-07-08T08:44:52;10.20;;;4.03;;
70825;SDS011;58446;41.490;22.098;2023-07-08T08:47:25;9.43;;;4.27;;
70825;SDS011;58446;41.490;22.098;2023-07-08T08:49:57;10.40;;;4.68;;
70825;SDS011;58446;41.490;22.098;2023-07-08T08:52:45;9.80;;;5.07;;
70825;SDS011;58446;41.490;22.098;2023-07-08T08:55:12;10.88;;;4.38;;
70825;SDS011;58446;41.490;22.098;2023-07-08T08:57:43;10.73;;;4.70;;
70825;SDS011;58446;41.490;22.098;2023-07-08T09:00:16;9.83;;;4.73;;
70825;SDS011;58446;41.490;22.098;2023-07-08T09:05:15;11.65;;;4.90;;
70825;SDS011;58446;41.490;22.098;2023-07-08T09:07:45;9.57;;;4.70;;
70825;SDS011;58446;41.490;22.098;2023-07-08T09:13:35;20.80;;;11.88;;
70825;SDS011;58446;41.490;22.098;2023-07-08T09:19:12;14.13;;;8.48;;
70825;SDS011;58446;41.490;22.098;2023-07-08T09:24:39;10.07;;;6.40;;
70825;SDS011;58446;41.490;22.098;2023-07-08T09:27:09;10.18;;;5.18;;
70825;SDS011;58446;41.490;22.098;2023-07-08T09:29:36;10.82;;;5.13;;
70825;SDS011;58446;41.490;22.098;2023-07-08T09:32:18;11.65;;;5.95;;
70825;SDS011;58446;41.490;22.098;2023-07-08T09:34:49;13.97;;;6.37;;
70825;SDS011;58446;41.490;22.098;2023-07-08T09:37:22;12.43;;;6.45;;
70825;SDS011;58446;41.490;22.098;2023-07-08T09:39:51;14.23;;;6.80;;
70825;SDS011;58446;41.490;22.098;2023-07-08T09:42:18;12.15;;;5.97;;
70825;SDS011;58446;41.490;22.098;2023-07-08T09:44:46;11.40;;;5.63;;
70825;SDS011;58446;41.490;22.098;2023-07-08T09:50:21;10.82;;;5.30;;
70825;SDS011;58446;41.490;22.098;2023-07-08T09:52:49;13.57;;;4.65;;
70825;SDS011;58446;41.490;22.098;2023-07-08T09:55:17;9.50;;;4.72;;
70825;SDS011;58446;41.490;22.098;2023-07-08T09:57:44;8.52;;;4.65;;
70825;SDS011;58446;41.490;22.098;2023-07-08T10:00:13;9.20;;;5.00;;
70825;SDS011;58446;41.490;22.098;2023-07-08T10:02:43;8.45;;;4.47;;
70825;SDS011;58446;41.490;22.098;2023-07-08T10:05:22;11.48;;;4.97;;
70825;SDS011;58446;41.490;22.098;2023-07-08T10:07:55;10.77;;;4.03;;
70825;SDS011;58446;41.490;22.098;2023-07-08T10:10:24;11.15;;;4.68;;
70825;SDS011;58446;41.490;22.098;2023-07-08T10:12:56;9.57;;;4.80;;
70825;SDS011;58446;41.490;22.098;2023-07-08T10:15:26;8.85;;;4.70;;
70825;SDS011;58446;41.490;22.098;2023-07-08T10:18:02;9.00;;;5.15;;
70825;SDS011;58446;41.490;22.098;2023-07-08T10:20:29;10.23;;;5.60;;
70825;SDS011;58446;41.490;22.098;2023-07-08T10:26:00;9.88;;;5.40;;
70825;SDS011;58446;41.490;22.098;2023-07-08T10:28:57;9.13;;;4.80;;
70825;SDS011;58446;41.490;22.098;2023-07-08T10:34:36;8.43;;;4.73;;
70825;SDS011;58446;41.490;22.098;2023-07-08T10:37:08;8.98;;;4.50;;
70825;SDS011;58446;41.490;22.098;2023-07-08T10:45:15;10.57;;;5.40;;
70825;SDS011;58446;41.490;22.098;2023-07-08T10:56:22;9.27;;;4.38;;
70825;SDS011;58446;41.490;22.098;2023-07-08T11:09:51;7.53;;;3.53;;
70825;SDS011;58446;41.490;22.098;2023-07-08T11:18:15;9.93;;;4.40;;
70825;SDS011;58446;41.490;22.098;2023-07-08T11:23:32;9.57;;;4.50;;
70825;SDS011;58446;41.490;22.098;2023-07-08T11:28:37;9.85;;;4.00;;
70825;SDS011;58446;41.490;22.098;2023-07-08T11:31:03;7.43;;;3.50;;
70825;SDS011;58446;41.490;22.098;2023-07-08T11:33:30;9.37;;;3.87;;
70825;SDS011;58446;41.490;22.098;2023-07-08T11:35:57;9.75;;;4.18;;
70825;SDS011;58446;41.490;22.098;2023-07-08T11:38:25;9.68;;;3.70;;
70825;SDS011;58446;41.490;22.098;2023-07-08T11:40:59;10.15;;;4.60;;
70825;SDS011;58446;41.490;22.098;2023-07-08T11:44:18;8.82;;;3.67;;
70825;SDS011;58446;41.490;22.098;2023-07-08T11:46:29;8.77;;;3.97;;
70825;SDS011;58446;41.490;22.098;2023-07-08T11:49:05;7.97;;;3.95;;
70825;SDS011;58446;41.490;22.098;2023-07-08T11:51:37;10.00;;;4.70;;
70825;SDS011;58446;41.490;22.098;2023-07-08T11:54:11;8.65;;;4.00;;
70825;SDS011;58446;41.490;22.098;2023-07-08T11:56:47;8.15;;;3.95;;
70825;SDS011;58446;41.490;22.098;2023-07-08T11:59:22;8.17;;;3.80;;
70825;SDS011;58446;41.490;22.098;2023-07-08T12:04:30;8.90;;;4.18;;
70825;SDS011;58446;41.490;22.098;2023-07-08T12:09:38;9.65;;;3.38;;
70825;SDS011;58446;41.490;22.098;2023-07-08T12:12:16;9.68;;;2.95;;
70825;SDS011;58446;41.490;22.098;2023-07-08T12:14:47;8.52;;;3.50;;
70825;SDS011;58446;41.490;22.098;2023-07-08T12:17:13;10.98;;;8.52;;
70825;SDS011;58446;41.490;22.098;2023-07-08T12:19:40;9.27;;;3.80;;
70825;SDS011;58446;41.490;22.098;2023-07-08T12:22:09;9.38;;;3.78;;
70825;SDS011;58446;41.490;22.098;2023-07-08T12:24:39;9.05;;;4.00;;
70825;SDS011;58446;41.490;22.098;2023-07-08T12:27:07;8.77;;;3.25;;
70825;SDS011;58446;41.490;22.098;2023-07-08T12:29:34;8.60;;;3.40;;
70825;SDS011;58446;41.490;22.098;2023-07-08T12:32:00;7.30;;;3.50;;
70825;SDS011;58446;41.490;22.098;2023-07-08T12:34:25;9.68;;;3.42;;
70825;SDS011;58446;41.490;22.098;2023-07-08T12:36:52;8.55;;;4.10;;
70825;SDS011;58446;41.490;22.098;2023-07-08T12:39:18;7.70;;;3.60;;
70825;SDS011;58446;41.490;22.098;2023-07-08T12:41:45;10.23;;;3.70;;
70825;SDS011;58446;41.490;22.098;2023-07-08T12:44:16;7.32;;;2.97;;
70825;SDS011;58446;41.490;22.098;2023-07-08T12:46:44;7.95;;;3.40;;
70825;SDS011;58446;41.490;22.098;2023-07-08T12:49:12;7.90;;;3.27;;
70825;SDS011;58446;41.490;22.098;2023-07-08T12:51:41;8.40;;;3.55;;
70825;SDS011;58446;41.490;22.098;2023-07-08T12:54:08;8.30;;;4.05;;
70825;SDS011;58446;41.490;22.098;2023-07-08T12:56:35;9.35;;;4.00;;
70825;SDS011;58446;41.490;22.098;2023-07-08T12:59:02;8.07;;;3.53;;
70825;SDS011;58446;41.490;22.098;2023-07-08T13:01:30;8.30;;;4.07;;
70825;SDS011;58446;41.490;22.098;2023-07-08T13:04:03;8.35;;;3.60;;
70825;SDS011;58446;41.490;22.098;2023-07-08T13:06:35;8.45;;;3.63;;
70825;SDS011;58446;41.490;22.098;2023-07-08T13:09:07;8.73;;;3.38;;
70825;SDS011;58446;41.490;22.098;2023-07-08T13:11:55;8.60;;;4.00;;
70825;SDS011;58446;41.490;22.098;2023-07-08T13:14:22;11.03;;;4.10;;
70825;SDS011;58446;41.490;22.098;2023-07-08T13:16:49;8.30;;;3.67;;
70825;SDS011;58446;41.490;22.098;2023-07-08T13:19:15;8.05;;;3.22;;
70825;SDS011;58446;41.490;22.098;2023-07-08T13:21:41;12.45;;;4.03;;
70825;SDS011;58446;41.490;22.098;2023-07-08T13:24:09;11.90;;;3.77;;
70825;SDS011;58446;41.490;22.098;2023-07-08T13:26:36;9.52;;;3.70;;
70825;SDS011;58446;41.490;22.098;2023-07-08T13:29:12;7.05;;;3.05;;
70825;SDS011;58446;41.490;22.098;2023-07-08T13:31:48;11.00;;;4.03;;
70825;SDS011;58446;41.490;22.098;2023-07-08T13:34:18;7.87;;;3.20;;
70825;SDS011;58446;41.490;22.098;2023-07-08T13:36:47;14.65;;;3.38;;
70825;SDS011;58446;41.490;22.098;2023-07-08T13:39:22;7.15;;;3.55;;
70825;SDS011;58446;41.490;22.098;2023-07-08T13:42:00;9.70;;;4.10;;
70825;SDS011;58446;41.490;22.098;2023-07-08T13:44:28;6.82;;;3.40;;
70825;SDS011;58446;41.490;22.098;2023-07-08T13:46:58;8.30;;;3.53;;
70825;SDS011;58446;41.490;22.098;2023-07-08T13:49:30;9.07;;;3.33;;
70825;SDS011;58446;41.490;22.098;2023-07-08T13:52:14;9.18;;;4.43;;
70825;SDS011;58446;41.490;22.098;2023-07-08T13:54:46;8.80;;;3.97;;
70825;SDS011;58446;41.490;22.098;2023-07-08T13:57:15;9.38;;;3.83;;
70825;SDS011;58446;41.490;22.098;2023-07-08T13:59:43;8.47;;;3.70;;
70825;SDS011;58446;41.490;22.098;2023-07-08T14:02:16;8.90;;;3.33;;
70825;SDS011;58446;41.490;22.098;2023-07-08T14:04:48;10.07;;;3.97;;
70825;SDS011;58446;41.490;22.098;2023-07-08T14:07:16;9.07;;;3.65;;
70825;SDS011;58446;41.490;22.098;2023-07-08T14:09:45;8.53;;;3.67;;
70825;SDS011;58446;41.490;22.098;2023-07-08T14:12:11;8.13;;;3.33;;
70825;SDS011;58446;41.490;22.098;2023-07-08T14:14:37;8.40;;;3.72;;
70825;SDS011;58446;41.490;22.098;2023-07-08T14:17:03;7.73;;;3.57;;
70825;SDS011;58446;41.490;22.098;2023-07-08T14:19:29;9.85;;;4.20;;
70825;SDS011;58446;41.490;22.098;2023-07-08T14:22:01;7.88;;;3.47;;
70825;SDS011;58446;41.490;22.098;2023-07-08T14:24:35;7.55;;;3.33;;
70825;SDS011;58446;41.490;22.098;2023-07-08T14:27:05;7.00;;;3.70;;
70825;SDS011;58446;41.490;22.098;2023-07-08T14:29:39;8.35;;;4.38;;
70825;SDS011;58446;41.490;22.098;2023-07-08T14:32:15;7.40;;;3.28;;
70825;SDS011;58446;41.490;22.098;2023-07-08T14:34:52;9.00;;;3.40;;
70825;SDS011;58446;41.490;22.098;2023-07-08T14:37:20;7.38;;;3.08;;
70825;SDS011;58446;41.490;22.098;2023-07-08T14:39:48;9.53;;;3.43;;
70825;SDS011;58446;41.490;22.098;2023-07-08T14:42:14;6.82;;;2.67;;
70825;SDS011;58446;41.490;22.098;2023-07-08T14:44:43;10.73;;;3.20;;
70825;SDS011;58446;41.490;22.098;2023-07-08T14:47:12;8.02;;;3.90;;
70825;SDS011;58446;41.490;22.098;2023-07-08T14:49:39;8.63;;;3.70;;
70825;SDS011;58446;41.490;22.098;2023-07-08T14:52:05;7.73;;;3.30;;
70825;SDS011;58446;41.490;22.098;2023-07-08T14:54:32;7.95;;;3.60;;
70825;SDS011;58446;41.490;22.098;2023-07-08T14:56:57;7.05;;;3.67;;
70825;SDS011;58446;41.490;22.098;2023-07-08T14:59:24;8.75;;;4.07;;
70825;SDS011;58446;41.490;22.098;2023-07-08T15:01:52;7.90;;;3.40;;
70825;SDS011;58446;41.490;22.098;2023-07-08T15:04:21;7.13;;;3.17;;
70825;SDS011;58446;41.490;22.098;2023-07-08T15:06:47;8.63;;;4.07;;
70825;SDS011;58446;41.490;22.098;2023-07-08T15:09:14;9.20;;;3.90;;
70825;SDS011;58446;41.490;22.098;2023-07-08T15:11:42;7.93;;;3.50;;
70825;SDS011;58446;41.490;22.098;2023-07-08T15:14:10;9.15;;;3.85;;
70825;SDS011;58446;41.490;22.098;2023-07-08T15:16:42;9.38;;;2.90;;
70825;SDS011;58446;41.490;22.098;2023-07-08T15:19:11;7.05;;;3.22;;
70825;SDS011;58446;41.490;22.098;2023-07-08T15:21:37;7.93;;;3.13;;
70825;SDS011;58446;41.490;22.098;2023-07-08T15:24:10;8.02;;;3.28;;
70825;SDS011;58446;41.490;22.098;2023-07-08T15:26:37;6.82;;;3.20;;
70825;SDS011;58446;41.490;22.098;2023-07-08T15:29:04;9.85;;;3.63;;
70825;SDS011;58446;41.490;22.098;2023-07-08T15:31:31;10.13;;;3.45;;
70825;SDS011;58446;41.490;22.098;2023-07-08T15:33:59;6.83;;;2.93;;
70825;SDS011;58446;41.490;22.098;2023-07-08T15:36:24;7.82;;;3.83;;
70825;SDS011;58446;41.490;22.098;2023-07-08T15:38:50;8.13;;;3.00;;